This is the latest recevied weather packets stored in our database for station/object YO6IKB-10. If no packets are shown the sender has not sent any weather packets the latest 10 day(s).
| Time | Temp. | Humidity | Pressure | Rain* | Wind** | Luminosity | Snow |
|---|---|---|---|---|---|---|---|
| 1777487387 | 6.67° C | 67% | 1015.7 hPa | 0 mm | - | - | - |
| 1777486486 | 6.67° C | 68% | 1015.5 hPa | 0 mm | - | - | - |
| 1777486186 | 6.67° C | 68% | 1015.4 hPa | 0 mm | - | - | - |
| 1777483783 | 8.89° C | 62% | 1014.7 hPa | 0 mm | - | - | - |
| 1777480780 | 9.44° C | 58% | 1013.8 hPa | 0 mm | - | - | - |
| 1777480480 | 10° C | 58% | 1013.7 hPa | 0 mm | - | - | - |
| 1777480180 | 10° C | 58% | 1013.8 hPa | 0 mm | - | - | - |
| 1777479579 | 10° C | 57% | 1013.6 hPa | 0 mm | - | - | - |
| 1777479279 | 10.56° C | 56% | 1013.6 hPa | 0 mm | - | - | - |
| 1777477177 | 12.22° C | 53% | 1013.5 hPa | 0 mm | - | - | - |
| 1777475976 | 17.22° C | 46% | 1013 hPa | 0 mm | - | - | - |
| 1777472973 | 17.78° C | 42% | 1012.9 hPa | 0 mm | - | - | - |
| 1777472072 | 17.22° C | 44% | 1012.9 hPa | 0 mm | - | - | - |
| 1777469970 | 16.67° C | 44% | 1013.1 hPa | 0 mm | - | - | - |
| 1777469369 | 16.67° C | 46% | 1013.1 hPa | 0 mm | - | - | - |
| 1777469069 | 16.11° C | 46% | 1013 hPa | 0 mm | - | - | - |
| 1777468769 | 16.11° C | 46% | 1013.1 hPa | 0 mm | - | - | - |
| 1777468468 | 15.56° C | 47% | 1013.1 hPa | 0 mm | - | - | - |
| 1777468168 | 15.56° C | 47% | 1013.1 hPa | 0 mm | - | - | - |
| 1777466366 | 15° C | 44% | 1013.4 hPa | 0 mm | - | - | - |
| 1777466066 | 15° C | 44% | 1013.4 hPa | 0 mm | - | - | - |
| 1777465766 | 15° C | 44% | 1013.4 hPa | 0 mm | - | - | - |
| 1777465465 | 15.56° C | 45% | 1013.5 hPa | 0 mm | - | - | - |
| 1777465165 | 15.56° C | 45% | 1013.6 hPa | 0 mm | - | - | - |
| 1777464865 | 15.56° C | 47% | 1013.7 hPa | 0 mm | - | - | - |
* Rain latest hour (hover to see other rain measurements)
** Current wind speed in m/s (hover to see current wind gust speed)